sensor_id;sensor_type;location;lat;lon;timestamp;temperature;humidity
52471;DHT22;38382;53.160;7.026;2023-11-19T00:02:20;9.40;99.90
52471;DHT22;38382;53.160;7.026;2023-11-19T00:04:46;9.40;99.90
52471;DHT22;38382;53.160;7.026;2023-11-19T00:07:11;9.50;99.90
52471;DHT22;38382;53.160;7.026;2023-11-19T00:09:39;9.50;99.90
52471;DHT22;38382;53.160;7.026;2023-11-19T00:12:06;9.60;99.90
52471;DHT22;38382;53.160;7.026;2023-11-19T00:14:33;9.60;99.90
52471;DHT22;38382;53.160;7.026;2023-11-19T00:17:00;9.70;99.90
52471;DHT22;38382;53.160;7.026;2023-11-19T00:19:26;9.80;99.90
52471;DHT22;38382;53.160;7.026;2023-11-19T00:21:52;9.90;99.90
52471;DHT22;38382;53.160;7.026;2023-11-19T00:24:18;10.00;99.90
52471;DHT22;38382;53.160;7.026;2023-11-19T00:26:44;10.00;99.90
52471;DHT22;38382;53.160;7.026;2023-11-19T00:29:10;10.00;99.90
52471;DHT22;38382;53.160;7.026;2023-11-19T00:31:36;10.20;99.90
52471;DHT22;38382;53.160;7.026;2023-11-19T00:34:02;10.20;99.90
52471;DHT22;38382;53.160;7.026;2023-11-19T00:36:28;10.20;99.90
52471;DHT22;38382;53.160;7.026;2023-11-19T00:38:54;10.20;99.90
52471;DHT22;38382;53.160;7.026;2023-11-19T00:41:20;10.30;99.90
52471;DHT22;38382;53.160;7.026;2023-11-19T00:43:46;10.40;99.90
52471;DHT22;38382;53.160;7.026;2023-11-19T00:46:12;10.40;99.90
52471;DHT22;38382;53.160;7.026;2023-11-19T00:48:39;10.40;99.90
52471;DHT22;38382;53.160;7.026;2023-11-19T00:51:06;10.50;99.90
52471;DHT22;38382;53.160;7.026;2023-11-19T00:53:32;10.50;99.90
52471;DHT22;38382;53.160;7.026;2023-11-19T00:55:59;10.50;99.90
52471;DHT22;38382;53.160;7.026;2023-11-19T00:58:25;10.60;99.90
52471;DHT22;38382;53.160;7.026;2023-11-19T01:00:52;10.60;99.90
52471;DHT22;38382;53.160;7.026;2023-11-19T01:03:18;10.60;99.90
52471;DHT22;38382;53.160;7.026;2023-11-19T01:05:43;10.60;99.90
52471;DHT22;38382;53.160;7.026;2023-11-19T01:08:10;10.70;99.90
52471;DHT22;38382;53.160;7.026;2023-11-19T01:10:38;10.70;99.90
52471;DHT22;38382;53.160;7.026;2023-11-19T01:13:04;10.70;99.90
52471;DHT22;38382;53.160;7.026;2023-11-19T01:15:33;10.80;99.90
52471;DHT22;38382;53.160;7.026;2023-11-19T01:17:59;10.70;99.90
52471;DHT22;38382;53.160;7.026;2023-11-19T01:20:24;10.70;99.90
52471;DHT22;38382;53.160;7.026;2023-11-19T01:22:52;10.80;99.90
52471;DHT22;38382;53.160;7.026;2023-11-19T01:25:17;10.70;99.90
52471;DHT22;38382;53.160;7.026;2023-11-19T01:27:43;10.80;99.90
52471;DHT22;38382;53.160;7.026;2023-11-19T01:30:09;10.90;99.90
52471;DHT22;38382;53.160;7.026;2023-11-19T01:32:39;10.90;99.90
52471;DHT22;38382;53.160;7.026;2023-11-19T01:35:05;10.90;99.90
52471;DHT22;38382;53.160;7.026;2023-11-19T01:37:31;10.90;99.90
52471;DHT22;38382;53.160;7.026;2023-11-19T01:39:58;10.90;99.90
52471;DHT22;38382;53.160;7.026;2023-11-19T01:42:23;10.90;99.90
52471;DHT22;38382;53.160;7.026;2023-11-19T01:44:58;11.00;99.90
52471;DHT22;38382;53.160;7.026;2023-11-19T01:47:28;11.10;99.90
52471;DHT22;38382;53.160;7.026;2023-11-19T01:49:54;11.10;99.90
52471;DHT22;38382;53.160;7.026;2023-11-19T01:52:21;11.10;99.90
52471;DHT22;38382;53.160;7.026;2023-11-19T01:54:48;11.10;99.90
52471;DHT22;38382;53.160;7.026;2023-11-19T01:57:14;11.20;99.90
52471;DHT22;38382;53.160;7.026;2023-11-19T01:59:40;11.20;99.90
52471;DHT22;38382;53.160;7.026;2023-11-19T02:02:07;11.20;99.90
52471;DHT22;38382;53.160;7.026;2023-11-19T02:04:33;11.20;99.90
52471;DHT22;38382;53.160;7.026;2023-11-19T02:07:00;11.30;99.90
52471;DHT22;38382;53.160;7.026;2023-11-19T02:09:26;11.30;99.90
52471;DHT22;38382;53.160;7.026;2023-11-19T02:11:53;11.30;99.90
52471;DHT22;38382;53.160;7.026;2023-11-19T02:14:23;11.30;99.90
52471;DHT22;38382;53.160;7.026;2023-11-19T02:16:49;11.30;99.90
52471;DHT22;38382;53.160;7.026;2023-11-19T02:19:15;11.30;99.90
52471;DHT22;38382;53.160;7.026;2023-11-19T02:21:41;11.30;99.90
52471;DHT22;38382;53.160;7.026;2023-11-19T02:24:08;11.30;99.90
52471;DHT22;38382;53.160;7.026;2023-11-19T02:26:51;11.30;99.90
52471;DHT22;38382;53.160;7.026;2023-11-19T02:29:18;11.30;99.90
52471;DHT22;38382;53.160;7.026;2023-11-19T02:31:44;11.30;99.90
52471;DHT22;38382;53.160;7.026;2023-11-19T02:34:12;11.40;99.90
52471;DHT22;38382;53.160;7.026;2023-11-19T02:36:39;11.30;99.90
52471;DHT22;38382;53.160;7.026;2023-11-19T02:39:07;11.30;99.90
52471;DHT22;38382;53.160;7.026;2023-11-19T02:41:36;10.90;99.90
52471;DHT22;38382;53.160;7.026;2023-11-19T02:44:05;11.30;99.90
52471;DHT22;38382;53.160;7.026;2023-11-19T02:46:31;11.30;99.90
52471;DHT22;38382;53.160;7.026;2023-11-19T02:48:57;11.40;99.90
52471;DHT22;38382;53.160;7.026;2023-11-19T02:51:23;11.40;99.90
52471;DHT22;38382;53.160;7.026;2023-11-19T02:53:49;11.40;99.90
52471;DHT22;38382;53.160;7.026;2023-11-19T02:56:15;11.50;99.90
52471;DHT22;38382;53.160;7.026;2023-11-19T02:58:45;11.40;99.90
52471;DHT22;38382;53.160;7.026;2023-11-19T03:01:12;11.50;99.90
52471;DHT22;38382;53.160;7.026;2023-11-19T03:03:48;11.50;99.90
52471;DHT22;38382;53.160;7.026;2023-11-19T03:06:19;11.40;99.90
52471;DHT22;38382;53.160;7.026;2023-11-19T03:08:45;11.40;99.90
52471;DHT22;38382;53.160;7.026;2023-11-19T03:11:11;11.50;99.90
52471;DHT22;38382;53.160;7.026;2023-11-19T03:13:36;11.40;99.90
52471;DHT22;38382;53.160;7.026;2023-11-19T03:16:02;11.40;99.90
52471;DHT22;38382;53.160;7.026;2023-11-19T03:18:28;11.40;99.90
52471;DHT22;38382;53.160;7.026;2023-11-19T03:20:54;11.50;99.90
52471;DHT22;38382;53.160;7.026;2023-11-19T03:23:19;11.50;99.90
52471;DHT22;38382;53.160;7.026;2023-11-19T03:25:45;11.50;99.90
52471;DHT22;38382;53.160;7.026;2023-11-19T03:28:11;11.60;99.90
52471;DHT22;38382;53.160;7.026;2023-11-19T03:30:36;11.50;99.90
52471;DHT22;38382;53.160;7.026;2023-11-19T03:33:02;11.60;99.90
52471;DHT22;38382;53.160;7.026;2023-11-19T03:35:28;11.60;99.90
52471;DHT22;38382;53.160;7.026;2023-11-19T03:37:54;11.60;99.90
52471;DHT22;38382;53.160;7.026;2023-11-19T03:40:20;11.70;99.90
52471;DHT22;38382;53.160;7.026;2023-11-19T03:42:46;11.60;99.90
52471;DHT22;38382;53.160;7.026;2023-11-19T03:45:12;11.70;99.90
52471;DHT22;38382;53.160;7.026;2023-11-19T03:47:37;11.80;99.90
52471;DHT22;38382;53.160;7.026;2023-11-19T03:50:04;11.70;99.90
52471;DHT22;38382;53.160;7.026;2023-11-19T03:52:30;11.70;99.90
52471;DHT22;38382;53.160;7.026;2023-11-19T03:54:56;11.70;99.90
52471;DHT22;38382;53.160;7.026;2023-11-19T03:57:24;11.60;99.90
52471;DHT22;38382;53.160;7.026;2023-11-19T03:59:50;11.60;99.90
52471;DHT22;38382;53.160;7.026;2023-11-19T04:02:16;11.60;99.90
52471;DHT22;38382;53.160;7.026;2023-11-19T04:04:42;11.60;99.90
52471;DHT22;38382;53.160;7.026;2023-11-19T04:07:08;11.60;99.90
52471;DHT22;38382;53.160;7.026;2023-11-19T04:09:34;11.60;99.90
52471;DHT22;38382;53.160;7.026;2023-11-19T04:12:00;11.70;99.90
52471;DHT22;38382;53.160;7.026;2023-11-19T04:14:26;11.60;99.90
52471;DHT22;38382;53.160;7.026;2023-11-19T04:16:52;11.70;99.90
52471;DHT22;38382;53.160;7.026;2023-11-19T04:19:21;11.70;99.90
52471;DHT22;38382;53.160;7.026;2023-11-19T04:21:47;11.80;99.90
52471;DHT22;38382;53.160;7.026;2023-11-19T04:24:13;11.70;99.90
52471;DHT22;38382;53.160;7.026;2023-11-19T04:26:43;11.60;99.90
52471;DHT22;38382;53.160;7.026;2023-11-19T04:29:14;11.70;99.90
52471;DHT22;38382;53.160;7.026;2023-11-19T04:31:41;11.70;99.90
52471;DHT22;38382;53.160;7.026;2023-11-19T04:34:07;11.80;99.90
52471;DHT22;38382;53.160;7.026;2023-11-19T04:36:33;11.80;99.90
52471;DHT22;38382;53.160;7.026;2023-11-19T04:39:02;11.70;99.90
52471;DHT22;38382;53.160;7.026;2023-11-19T04:41:32;11.80;99.90
52471;DHT22;38382;53.160;7.026;2023-11-19T04:43:58;11.70;99.90
52471;DHT22;38382;53.160;7.026;2023-11-19T04:46:24;11.70;99.90
52471;DHT22;38382;53.160;7.026;2023-11-19T04:48:49;11.70;99.90
52471;DHT22;38382;53.160;7.026;2023-11-19T04:51:16;11.70;99.90
52471;DHT22;38382;53.160;7.026;2023-11-19T04:53:42;11.70;99.90
52471;DHT22;38382;53.160;7.026;2023-11-19T04:56:11;11.60;99.90
52471;DHT22;38382;53.160;7.026;2023-11-19T04:58:37;11.60;99.90
52471;DHT22;38382;53.160;7.026;2023-11-19T05:01:03;11.60;99.90
52471;DHT22;38382;53.160;7.026;2023-11-19T05:03:30;11.60;99.90
52471;DHT22;38382;53.160;7.026;2023-11-19T05:05:57;11.60;99.90
52471;DHT22;38382;53.160;7.026;2023-11-19T05:08:22;11.60;99.90
52471;DHT22;38382;53.160;7.026;2023-11-19T05:10:48;11.60;99.90
52471;DHT22;38382;53.160;7.026;2023-11-19T05:13:14;11.50;99.90
52471;DHT22;38382;53.160;7.026;2023-11-19T05:15:41;11.60;99.90
52471;DHT22;38382;53.160;7.026;2023-11-19T05:18:07;11.50;99.90
52471;DHT22;38382;53.160;7.026;2023-11-19T05:20:32;11.60;99.90
52471;DHT22;38382;53.160;7.026;2023-11-19T05:22:59;11.60;99.90
52471;DHT22;38382;53.160;7.026;2023-11-19T05:25:26;11.50;99.90
52471;DHT22;38382;53.160;7.026;2023-11-19T05:27:52;11.50;99.90
52471;DHT22;38382;53.160;7.026;2023-11-19T05:30:18;11.50;99.90
52471;DHT22;38382;53.160;7.026;2023-11-19T05:32:44;11.50;99.90
52471;DHT22;38382;53.160;7.026;2023-11-19T05:35:11;11.50;99.90
52471;DHT22;38382;53.160;7.026;2023-11-19T05:37:37;11.60;99.90
52471;DHT22;38382;53.160;7.026;2023-11-19T05:40:03;11.60;99.90
52471;DHT22;38382;53.160;7.026;2023-11-19T05:42:33;11.50;99.90
52471;DHT22;38382;53.160;7.026;2023-11-19T05:44:59;11.50;99.90
52471;DHT22;38382;53.160;7.026;2023-11-19T05:47:25;11.50;99.90
52471;DHT22;38382;53.160;7.026;2023-11-19T05:49:50;11.50;99.90
52471;DHT22;38382;53.160;7.026;2023-11-19T05:52:16;11.40;99.90
52471;DHT22;38382;53.160;7.026;2023-11-19T05:54:42;11.50;99.90
52471;DHT22;38382;53.160;7.026;2023-11-19T05:57:07;11.40;99.90
52471;DHT22;38382;53.160;7.026;2023-11-19T05:59:35;11.40;99.90
52471;DHT22;38382;53.160;7.026;2023-11-19T06:02:02;11.40;99.90
52471;DHT22;38382;53.160;7.026;2023-11-19T06:04:28;11.40;99.90
52471;DHT22;38382;53.160;7.026;2023-11-19T06:06:54;11.40;99.90
52471;DHT22;38382;53.160;7.026;2023-11-19T06:09:21;11.40;99.90
52471;DHT22;38382;53.160;7.026;2023-11-19T06:11:49;11.40;99.90
52471;DHT22;38382;53.160;7.026;2023-11-19T06:14:16;11.40;99.90
52471;DHT22;38382;53.160;7.026;2023-11-19T06:16:42;11.40;99.90
52471;DHT22;38382;53.160;7.026;2023-11-19T06:19:08;11.30;99.90
52471;DHT22;38382;53.160;7.026;2023-11-19T06:21:33;11.30;99.90
52471;DHT22;38382;53.160;7.026;2023-11-19T06:24:01;11.30;99.90
52471;DHT22;38382;53.160;7.026;2023-11-19T06:26:27;11.40;99.90
52471;DHT22;38382;53.160;7.026;2023-11-19T06:28:52;11.40;99.90
52471;DHT22;38382;53.160;7.026;2023-11-19T06:31:18;11.40;99.90
52471;DHT22;38382;53.160;7.026;2023-11-19T06:33:44;11.30;99.90
52471;DHT22;38382;53.160;7.026;2023-11-19T06:36:10;11.40;99.90
52471;DHT22;38382;53.160;7.026;2023-11-19T06:38:36;11.30;99.90
52471;DHT22;38382;53.160;7.026;2023-11-19T06:41:01;11.30;99.90
52471;DHT22;38382;53.160;7.026;2023-11-19T06:43:27;11.30;99.90
52471;DHT22;38382;53.160;7.026;2023-11-19T06:45:56;11.30;99.90
52471;DHT22;38382;53.160;7.026;2023-11-19T06:48:22;11.30;99.90
52471;DHT22;38382;53.160;7.026;2023-11-19T06:50:48;11.30;99.90
52471;DHT22;38382;53.160;7.026;2023-11-19T06:53:13;11.20;99.90
52471;DHT22;38382;53.160;7.026;2023-11-19T06:55:39;11.20;99.90
52471;DHT22;38382;53.160;7.026;2023-11-19T06:58:06;11.10;99.90
52471;DHT22;38382;53.160;7.026;2023-11-19T07:00:32;11.10;99.90
52471;DHT22;38382;53.160;7.026;2023-11-19T07:02:59;11.10;99.90
52471;DHT22;38382;53.160;7.026;2023-11-19T07:05:25;11.10;99.90
52471;DHT22;38382;53.160;7.026;2023-11-19T07:07:51;11.10;99.90
52471;DHT22;38382;53.160;7.026;2023-11-19T07:10:16;11.10;99.90
52471;DHT22;38382;53.160;7.026;2023-11-19T07:12:42;11.00;99.90
52471;DHT22;38382;53.160;7.026;2023-11-19T07:15:08;11.10;99.90
52471;DHT22;38382;53.160;7.026;2023-11-19T07:17:34;11.00;99.90
52471;DHT22;38382;53.160;7.026;2023-11-19T07:20:00;11.00;99.90
52471;DHT22;38382;53.160;7.026;2023-11-19T07:22:26;11.00;99.90
52471;DHT22;38382;53.160;7.026;2023-11-19T07:24:54;11.00;99.90
52471;DHT22;38382;53.160;7.026;2023-11-19T07:27:20;10.90;99.90
52471;DHT22;38382;53.160;7.026;2023-11-19T07:29:46;11.00;99.90
52471;DHT22;38382;53.160;7.026;2023-11-19T07:32:11;11.00;99.90
52471;DHT22;38382;53.160;7.026;2023-11-19T07:34:39;11.00;99.90
52471;DHT22;38382;53.160;7.026;2023-11-19T07:37:05;11.00;99.90
52471;DHT22;38382;53.160;7.026;2023-11-19T07:39:31;11.00;99.90
52471;DHT22;38382;53.160;7.026;2023-11-19T07:41:58;11.00;99.90
52471;DHT22;38382;53.160;7.026;2023-11-19T07:44:23;11.00;99.90
52471;DHT22;38382;53.160;7.026;2023-11-19T07:46:50;11.00;99.90
52471;DHT22;38382;53.160;7.026;2023-11-19T07:49:15;11.00;99.90
52471;DHT22;38382;53.160;7.026;2023-11-19T07:51:41;11.00;99.90
52471;DHT22;38382;53.160;7.026;2023-11-19T07:54:07;11.00;99.90
52471;DHT22;38382;53.160;7.026;2023-11-19T07:56:34;11.00;99.90
52471;DHT22;38382;53.160;7.026;2023-11-19T07:59:02;11.00;99.90
52471;DHT22;38382;53.160;7.026;2023-11-19T08:01:27;11.00;99.90
52471;DHT22;38382;53.160;7.026;2023-11-19T08:03:53;11.00;99.90
52471;DHT22;38382;53.160;7.026;2023-11-19T08:06:19;11.00;99.90
52471;DHT22;38382;53.160;7.026;2023-11-19T08:08:45;11.00;99.90
52471;DHT22;38382;53.160;7.026;2023-11-19T08:11:11;10.90;99.90
52471;DHT22;38382;53.160;7.026;2023-11-19T08:13:39;10.90;99.90
52471;DHT22;38382;53.160;7.026;2023-11-19T08:16:05;10.90;99.90
52471;DHT22;38382;53.160;7.026;2023-11-19T08:18:31;11.00;99.90
52471;DHT22;38382;53.160;7.026;2023-11-19T08:21:02;10.90;99.90
52471;DHT22;38382;53.160;7.026;2023-11-19T08:23:30;10.90;99.90
52471;DHT22;38382;53.160;7.026;2023-11-19T08:25:56;11.00;99.90
52471;DHT22;38382;53.160;7.026;2023-11-19T08:28:21;11.00;99.90
52471;DHT22;38382;53.160;7.026;2023-11-19T08:30:47;11.10;99.90
52471;DHT22;38382;53.160;7.026;2023-11-19T08:33:13;11.10;99.90
52471;DHT22;38382;53.160;7.026;2023-11-19T08:35:40;11.10;99.90
52471;DHT22;38382;53.160;7.026;2023-11-19T08:38:06;11.10;99.90
52471;DHT22;38382;53.160;7.026;2023-11-19T08:40:32;11.10;99.90
52471;DHT22;38382;53.160;7.026;2023-11-19T08:42:57;11.10;99.90
52471;DHT22;38382;53.160;7.026;2023-11-19T08:45:25;11.10;99.90
52471;DHT22;38382;53.160;7.026;2023-11-19T08:47:51;11.10;99.90
52471;DHT22;38382;53.160;7.026;2023-11-19T08:50:17;11.20;99.90
52471;DHT22;38382;53.160;7.026;2023-11-19T08:52:42;11.20;99.90
52471;DHT22;38382;53.160;7.026;2023-11-19T08:55:08;11.20;99.90
52471;DHT22;38382;53.160;7.026;2023-11-19T08:57:35;11.30;99.90
52471;DHT22;38382;53.160;7.026;2023-11-19T09:00:01;11.30;99.90
52471;DHT22;38382;53.160;7.026;2023-11-19T09:02:28;11.30;99.90
52471;DHT22;38382;53.160;7.026;2023-11-19T09:04:54;11.30;99.90
52471;DHT22;38382;53.160;7.026;2023-11-19T09:07:20;11.20;99.90
52471;DHT22;38382;53.160;7.026;2023-11-19T09:09:46;11.30;99.90
52471;DHT22;38382;53.160;7.026;2023-11-19T09:12:12;11.30;99.90
52471;DHT22;38382;53.160;7.026;2023-11-19T09:14:39;11.20;99.90
52471;DHT22;38382;53.160;7.026;2023-11-19T09:17:05;11.20;99.90
52471;DHT22;38382;53.160;7.026;2023-11-19T09:19:32;11.30;99.90
52471;DHT22;38382;53.160;7.026;2023-11-19T09:22:00;11.30;99.90
52471;DHT22;38382;53.160;7.026;2023-11-19T09:24:25;11.40;99.90
52471;DHT22;38382;53.160;7.026;2023-11-19T09:26:51;11.40;99.90
52471;DHT22;38382;53.160;7.026;2023-11-19T09:29:17;11.40;99.90
52471;DHT22;38382;53.160;7.026;2023-11-19T09:31:43;11.40;99.90
52471;DHT22;38382;53.160;7.026;2023-11-19T09:34:08;11.40;99.90
52471;DHT22;38382;53.160;7.026;2023-11-19T09:36:34;11.50;99.90
52471;DHT22;38382;53.160;7.026;2023-11-19T09:39:00;11.50;99.90
52471;DHT22;38382;53.160;7.026;2023-11-19T09:41:27;11.50;99.90
52471;DHT22;38382;53.160;7.026;2023-11-19T09:43:53;11.50;99.90
52471;DHT22;38382;53.160;7.026;2023-11-19T09:46:19;11.60;99.90
52471;DHT22;38382;53.160;7.026;2023-11-19T09:48:46;11.60;99.90
52471;DHT22;38382;53.160;7.026;2023-11-19T09:51:13;11.70;99.90
52471;DHT22;38382;53.160;7.026;2023-11-19T09:53:40;11.90;99.90
52471;DHT22;38382;53.160;7.026;2023-11-19T09:56:06;11.80;99.90
52471;DHT22;38382;53.160;7.026;2023-11-19T09:58:33;11.90;99.90
52471;DHT22;38382;53.160;7.026;2023-11-19T10:01:00;11.80;99.90
52471;DHT22;38382;53.160;7.026;2023-11-19T10:03:32;11.90;99.90
52471;DHT22;38382;53.160;7.026;2023-11-19T10:05:58;11.80;99.90
52471;DHT22;38382;53.160;7.026;2023-11-19T10:08:26;11.80;99.90
52471;DHT22;38382;53.160;7.026;2023-11-19T10:10:51;11.80;99.90
52471;DHT22;38382;53.160;7.026;2023-11-19T10:13:17;11.90;99.90
52471;DHT22;38382;53.160;7.026;2023-11-19T10:15:43;11.90;99.90
52471;DHT22;38382;53.160;7.026;2023-11-19T10:18:09;11.90;99.90
52471;DHT22;38382;53.160;7.026;2023-11-19T10:20:41;12.00;99.90
52471;DHT22;38382;53.160;7.026;2023-11-19T10:23:07;12.10;99.90
52471;DHT22;38382;53.160;7.026;2023-11-19T10:25:33;12.20;99.90
52471;DHT22;38382;53.160;7.026;2023-11-19T10:28:00;12.30;99.90
52471;DHT22;38382;53.160;7.026;2023-11-19T10:30:27;12.30;99.90
52471;DHT22;38382;53.160;7.026;2023-11-19T10:33:13;12.30;99.90
52471;DHT22;38382;53.160;7.026;2023-11-19T10:35:58;12.20;99.90
52471;DHT22;38382;53.160;7.026;2023-11-19T10:38:26;12.20;99.90
52471;DHT22;38382;53.160;7.026;2023-11-19T10:40:52;12.10;99.90
52471;DHT22;38382;53.160;7.026;2023-11-19T10:43:22;12.10;99.90
52471;DHT22;38382;53.160;7.026;2023-11-19T10:45:48;12.00;99.90
52471;DHT22;38382;53.160;7.026;2023-11-19T10:48:14;11.90;99.90
52471;DHT22;38382;53.160;7.026;2023-11-19T10:50:42;11.90;99.90
52471;DHT22;38382;53.160;7.026;2023-11-19T10:53:10;11.80;99.90
52471;DHT22;38382;53.160;7.026;2023-11-19T10:55:37;11.70;99.90
52471;DHT22;38382;53.160;7.026;2023-11-19T10:58:10;11.70;99.90
52471;DHT22;38382;53.160;7.026;2023-11-19T11:03:16;11.70;99.90
52471;DHT22;38382;53.160;7.026;2023-11-19T11:05:42;11.70;99.90
52471;DHT22;38382;53.160;7.026;2023-11-19T11:08:09;11.60;99.90
52471;DHT22;38382;53.160;7.026;2023-11-19T11:10:43;11.60;99.90
52471;DHT22;38382;53.160;7.026;2023-11-19T11:13:10;11.60;99.90
52471;DHT22;38382;53.160;7.026;2023-11-19T11:15:39;11.60;99.90
52471;DHT22;38382;53.160;7.026;2023-11-19T11:18:08;11.50;99.90
52471;DHT22;38382;53.160;7.026;2023-11-19T11:20:35;11.50;99.90
52471;DHT22;38382;53.160;7.026;2023-11-19T11:23:25;11.50;99.90
52471;DHT22;38382;53.160;7.026;2023-11-19T11:26:32;11.50;99.90
52471;DHT22;38382;53.160;7.026;2023-11-19T11:29:09;11.50;99.90
52471;DHT22;38382;53.160;7.026;2023-11-19T11:37:25;11.70;99.90
52471;DHT22;38382;53.160;7.026;2023-11-19T11:39:51;12.00;99.90
52471;DHT22;38382;53.160;7.026;2023-11-19T11:42:30;12.30;99.90
52471;DHT22;38382;53.160;7.026;2023-11-19T11:45:05;12.40;99.90
52471;DHT22;38382;53.160;7.026;2023-11-19T11:50:10;12.40;99.90
52471;DHT22;38382;53.160;7.026;2023-11-19T11:55:28;12.30;99.90
52471;DHT22;38382;53.160;7.026;2023-11-19T11:57:59;12.30;99.90
52471;DHT22;38382;53.160;7.026;2023-11-19T12:00:39;12.30;99.90
52471;DHT22;38382;53.160;7.026;2023-11-19T12:03:08;12.20;99.90
52471;DHT22;38382;53.160;7.026;2023-11-19T12:05:39;12.20;99.90
52471;DHT22;38382;53.160;7.026;2023-11-19T12:08:06;12.10;99.90
52471;DHT22;38382;53.160;7.026;2023-11-19T12:10:38;12.10;99.90
52471;DHT22;38382;53.160;7.026;2023-11-19T12:13:09;12.10;99.90
52471;DHT22;38382;53.160;7.026;2023-11-19T12:18:28;12.10;99.90
52471;DHT22;38382;53.160;7.026;2023-11-19T12:20:54;12.10;99.90
52471;DHT22;38382;53.160;7.026;2023-11-19T12:23:20;12.00;99.90
52471;DHT22;38382;53.160;7.026;2023-11-19T12:25:46;12.00;99.90
52471;DHT22;38382;53.160;7.026;2023-11-19T12:28:13;12.00;99.90
52471;DHT22;38382;53.160;7.026;2023-11-19T12:30:39;11.90;99.90
52471;DHT22;38382;53.160;7.026;2023-11-19T12:33:09;11.90;99.90
52471;DHT22;38382;53.160;7.026;2023-11-19T12:35:42;11.90;99.90
52471;DHT22;38382;53.160;7.026;2023-11-19T12:38:27;12.20;99.90
52471;DHT22;38382;53.160;7.026;2023-11-19T12:41:06;12.50;99.90
52471;DHT22;38382;53.160;7.026;2023-11-19T12:43:32;12.80;99.90
52471;DHT22;38382;53.160;7.026;2023-11-19T12:46:00;13.30;99.90
52471;DHT22;38382;53.160;7.026;2023-11-19T12:48:26;13.90;99.90
52471;DHT22;38382;53.160;7.026;2023-11-19T12:50:56;14.30;99.90
52471;DHT22;38382;53.160;7.026;2023-11-19T12:53:24;14.20;99.90
52471;DHT22;38382;53.160;7.026;2023-11-19T12:55:50;14.00;99.90
52471;DHT22;38382;53.160;7.026;2023-11-19T13:03:31;13.50;99.90
52471;DHT22;38382;53.160;7.026;2023-11-19T13:06:08;13.30;99.90
52471;DHT22;38382;53.160;7.026;2023-11-19T13:08:48;13.10;99.90
52471;DHT22;38382;53.160;7.026;2023-11-19T13:11:19;12.90;99.90
52471;DHT22;38382;53.160;7.026;2023-11-19T13:14:01;12.80;99.90
52471;DHT22;38382;53.160;7.026;2023-11-19T13:16:27;12.60;99.90
52471;DHT22;38382;53.160;7.026;2023-11-19T13:18:53;12.50;99.90
52471;DHT22;38382;53.160;7.026;2023-11-19T13:21:19;12.40;99.90
52471;DHT22;38382;53.160;7.026;2023-11-19T13:23:44;12.40;99.90
52471;DHT22;38382;53.160;7.026;2023-11-19T13:26:11;12.30;99.90
52471;DHT22;38382;53.160;7.026;2023-11-19T13:28:37;12.30;99.90
52471;DHT22;38382;53.160;7.026;2023-11-19T13:31:03;12.20;99.90
52471;DHT22;38382;53.160;7.026;2023-11-19T13:33:29;12.20;99.90
52471;DHT22;38382;53.160;7.026;2023-11-19T13:35:56;12.20;99.90
52471;DHT22;38382;53.160;7.026;2023-11-19T13:38:21;12.10;99.90
52471;DHT22;38382;53.160;7.026;2023-11-19T13:40:48;12.10;99.90
52471;DHT22;38382;53.160;7.026;2023-11-19T13:43:14;12.10;99.90
52471;DHT22;38382;53.160;7.026;2023-11-19T13:45:40;12.10;99.90
52471;DHT22;38382;53.160;7.026;2023-11-19T13:48:06;12.10;99.90
52471;DHT22;38382;53.160;7.026;2023-11-19T13:50:31;12.00;99.90
52471;DHT22;38382;53.160;7.026;2023-11-19T13:52:59;12.10;99.90
52471;DHT22;38382;53.160;7.026;2023-11-19T13:55:25;12.00;99.90
52471;DHT22;38382;53.160;7.026;2023-11-19T13:57:51;12.00;99.90
52471;DHT22;38382;53.160;7.026;2023-11-19T14:00:17;12.00;99.90
52471;DHT22;38382;53.160;7.026;2023-11-19T14:02:45;12.00;99.90
52471;DHT22;38382;53.160;7.026;2023-11-19T14:05:11;11.90;99.90
52471;DHT22;38382;53.160;7.026;2023-11-19T14:07:38;11.90;99.90
52471;DHT22;38382;53.160;7.026;2023-11-19T14:10:04;11.90;99.90
52471;DHT22;38382;53.160;7.026;2023-11-19T14:12:31;11.90;99.90
52471;DHT22;38382;53.160;7.026;2023-11-19T14:14:58;11.90;99.90
52471;DHT22;38382;53.160;7.026;2023-11-19T14:17:24;11.90;99.90
52471;DHT22;38382;53.160;7.026;2023-11-19T14:19:50;11.90;99.90
52471;DHT22;38382;53.160;7.026;2023-11-19T14:22:16;11.80;99.90
52471;DHT22;38382;53.160;7.026;2023-11-19T14:24:42;11.70;99.90
52471;DHT22;38382;53.160;7.026;2023-11-19T14:27:09;11.70;99.90
52471;DHT22;38382;53.160;7.026;2023-11-19T14:29:35;11.70;99.90
52471;DHT22;38382;53.160;7.026;2023-11-19T14:32:02;11.70;99.90
52471;DHT22;38382;53.160;7.026;2023-11-19T14:34:29;11.60;99.90
52471;DHT22;38382;53.160;7.026;2023-11-19T14:36:55;11.60;99.90
52471;DHT22;38382;53.160;7.026;2023-11-19T14:39:21;11.60;99.90
52471;DHT22;38382;53.160;7.026;2023-11-19T14:41:46;11.60;99.90
52471;DHT22;38382;53.160;7.026;2023-11-19T14:44:12;11.60;99.90
52471;DHT22;38382;53.160;7.026;2023-11-19T14:46:38;11.50;99.90
52471;DHT22;38382;53.160;7.026;2023-11-19T14:49:03;11.50;99.90
52471;DHT22;38382;53.160;7.026;2023-11-19T14:51:30;11.50;99.90
52471;DHT22;38382;53.160;7.026;2023-11-19T14:53:56;11.40;99.90
52471;DHT22;38382;53.160;7.026;2023-11-19T14:56:21;11.40;99.90
52471;DHT22;38382;53.160;7.026;2023-11-19T14:58:47;11.30;99.90
52471;DHT22;38382;53.160;7.026;2023-11-19T15:01:16;11.30;99.90
52471;DHT22;38382;53.160;7.026;2023-11-19T15:03:42;11.30;99.90
52471;DHT22;38382;53.160;7.026;2023-11-19T15:06:07;11.20;99.90
52471;DHT22;38382;53.160;7.026;2023-11-19T15:08:33;11.30;99.90
52471;DHT22;38382;53.160;7.026;2023-11-19T15:10:59;11.20;99.90
52471;DHT22;38382;53.160;7.026;2023-11-19T15:13:27;11.20;99.90
52471;DHT22;38382;53.160;7.026;2023-11-19T15:15:53;11.20;99.90
52471;DHT22;38382;53.160;7.026;2023-11-19T15:18:20;11.20;99.90
52471;DHT22;38382;53.160;7.026;2023-11-19T15:20:46;11.10;99.90
52471;DHT22;38382;53.160;7.026;2023-11-19T15:23:16;11.20;99.90
52471;DHT22;38382;53.160;7.026;2023-11-19T15:25:44;11.10;99.90
52471;DHT22;38382;53.160;7.026;2023-11-19T15:28:10;11.10;99.90
52471;DHT22;38382;53.160;7.026;2023-11-19T15:30:36;11.10;99.90
52471;DHT22;38382;53.160;7.026;2023-11-19T15:33:01;11.10;99.90
52471;DHT22;38382;53.160;7.026;2023-11-19T15:35:27;11.00;99.90
52471;DHT22;38382;53.160;7.026;2023-11-19T15:37:53;11.10;99.90
52471;DHT22;38382;53.160;7.026;2023-11-19T15:40:19;11.00;99.90
52471;DHT22;38382;53.160;7.026;2023-11-19T15:42:46;11.00;99.90
52471;DHT22;38382;53.160;7.026;2023-11-19T15:45:12;11.00;99.90
52471;DHT22;38382;53.160;7.026;2023-11-19T15:47:38;11.00;99.90
52471;DHT22;38382;53.160;7.026;2023-11-19T15:50:04;11.00;99.90
52471;DHT22;38382;53.160;7.026;2023-11-19T15:52:31;11.00;99.90